Terminal Aerodrome Forecast
Issued by NWS

Current Version | Previous Version | Text Only | Print | Product List | Glossary On
Versions: 1 2 3 4 5 6 7 8 9 10 11 12
995
FTUS45 KRIW 112331
TAFWRL
TAF
KWRL 112331Z 1200/1224 VRB04KT P6SM SCT250
     FM120600 VRB04KT P6SM SCT090 BKN130
     FM121900 VRB05KT P6SM SCT150 BKN250=

USA.gov is the U.S. government's official web portal to all federal, state and local government web resources and services.